OAMS

Details ICAO OAMS (MZR)
Name Mazar I Sharif
Region Afghanistan
Timezone Asia/Kabul (UTC+4.5)
Plans Departing 18
Arriving 12
Stats Elevation 1,287 ft / 392 m (AMSL)
Location 36.706720° 67.211770°
Runways 3
Magnetic Variation 3.987° E
Sunrise 2018-05-21 00:21:06 UTC / 2018-05-21 04:51:06 Local
Sunset 2018-05-21 14:37:13 UTC / 2018-05-21 19:07:13 Local
Advertisement - Login to hide

Runways

ID Width Length Bearing (true) Bearing (mag) Surface Threshold Offset Overrun Length
06 150 ft / 46 m 10,416 ft / 3,175 m 65.66° 61.67° Asphalt 535 ft / 163 m 150 ft / 46 m
06L 150 ft / 46 m 10,424 ft / 3,177 m 65.71° 61.72° Asphalt 0 ft / 0 m 115 ft / 35 m
06R 164 ft / 50 m 9,840 ft / 2,999 m 65.91° 61.92° Asphalt 0 ft / 0 m 436 ft / 133 m
24 150 ft / 46 m 10,416 ft / 3,175 m 245.68° 241.69° Asphalt 2,553 ft / 778 m 0 ft / 0 m
24L 164 ft / 50 m 9,840 ft / 2,999 m 245.93° 241.94° Asphalt 0 ft / 0 m 499 ft / 152 m
24R 150 ft / 46 m 10,424 ft / 3,177 m 245.73° 241.74° Asphalt 0 ft / 0 m 0 ft / 0 m

Map

Weather


0- 5 10 15 20 25 30 35+ Temperature / ° C

Clouds and Precipitation
Forecast for 2018-05-21 12:00 UTC. Updated 22 minutes ago

Ground ~20,000 ft ~40,000 ft Winds

METAR

OAMS 210850Z 03009KT 9999 FEW065TCU BKN220 28/03 Q1015 BLU+BLU+

TAF

Not found

Frequencies

Tower 135.35 MHz TWR
Warning: Do not use this data for real-world aviation or navigation. No guarantee of current accuracy is given.